Time;durP1;ratioP1;P1;durP2;ratioP2;P2;SDS_P1;SDS_P2;PMS_P1;PMS_P2;Temp;Humidity;BMP_temperature;BMP_pressure;BME280_temperature;BME280_humidity;BME280_pressure;Samples;Min_cycle;Max_cycle;Signal;HPM_P1;HPM_P2
2023/11/21 00:01:16;;;;;;;;;;;256.00;2252.80;;;;;;4991460;28;20378;-76
2023/11/21 00:03:42;;;;;;;;;;;256.10;2252.80;;;;;;4967531;28;19906;-76
2023/11/21 00:06:11;;;;;;;;;;;256.10;2252.80;;;;;;4987377;28;19917;-76
2023/11/21 00:08:37;;;;;;;;;;;256.20;2252.80;;;;;;4989405;28;19918;-76
2023/11/21 00:11:05;;;;;;;;;;;231.30;2252.80;;;;;;4987474;28;19906;-75
2023/11/21 00:13:31;;;;;;;;;;;231.00;2252.80;;;;;;4994900;28;19910;-75
2023/11/21 00:15:56;;;;;;;;;;;230.90;2252.80;;;;;;4994787;28;19916;-75
2023/11/21 00:18:22;;;;;;;;;;;231.00;2252.80;;;;;;4987255;28;19925;-76
2023/11/21 00:20:48;;;;;;;;;;;231.00;2252.80;;;;;;4991550;28;19972;-76
2023/11/21 00:23:13;;;;;;;;;;;231.10;2252.80;;;;;;4985425;28;19920;-76
2023/11/21 00:25:39;;;;;;;;;;;231.10;2252.80;;;;;;4973036;28;19906;-76
2023/11/21 00:28:05;;;;;;;;;;;231.00;2252.80;;;;;;4977583;28;19906;-76
2023/11/21 00:30:31;;;;;;;;;;;230.90;2252.80;;;;;;4986062;28;19905;-76
2023/11/21 00:32:57;;;;;;;;;;;230.70;2252.80;;;;;;4994657;28;19956;-76
2023/11/21 00:35:22;;;;;;;;;;;230.80;2252.80;;;;;;4988186;28;19910;-76
2023/11/21 00:37:49;;;;;;;;;;;230.80;2252.80;;;;;;4992010;28;20382;-76
2023/11/21 00:40:15;;;;;;;;;;;230.90;2252.80;;;;;;4963315;28;19910;-77
2023/11/21 00:42:41;;;;;;;;;;;230.90;2252.80;;;;;;4979978;28;19917;-76
2023/11/21 00:45:07;;;;;;;;;;;231.10;2252.80;;;;;;4990549;28;19912;-75
2023/11/21 00:47:32;;;;;;;;;;;230.90;2252.80;;;;;;4977442;28;20385;-76
2023/11/21 00:49:58;;;;;;;;;;;231.00;2252.80;;;;;;4973167;28;19906;-77
2023/11/21 00:52:24;;;;;;;;;;;231.00;2252.80;;;;;;4990782;28;19921;-76
2023/11/21 00:54:49;;;;;;;;;;;231.10;2252.80;;;;;;4990922;28;19912;-76
2023/11/21 00:57:15;;;;;;;;;;;256.00;2252.80;;;;;;4978186;28;20322;-76
2023/11/21 00:59:40;;;;;;;;;;;231.10;2252.80;;;;;;4990826;28;20000;-77
2023/11/21 01:02:09;;;;;;;;;;;231.10;2252.80;;;;;;4993436;28;20364;-78
2023/11/21 01:04:35;;;;;;;;;;;231.20;2252.80;;;;;;4979261;28;19906;-77
2023/11/21 01:07:01;;;;;;;;;;;231.30;2252.80;;;;;;4978882;28;20351;-76
2023/11/21 01:09:27;;;;;;;;;;;231.30;2252.80;;;;;;4979335;28;19906;-77
2023/11/21 01:11:53;;;;;;;;;;;231.30;2252.80;;;;;;4996642;28;19913;-77
2023/11/21 01:14:19;;;;;;;;;;;231.20;2252.80;;;;;;4978784;28;19906;-77
2023/11/21 01:16:44;;;;;;;;;;;230.90;2252.80;;;;;;4978830;28;20347;-78
2023/11/21 01:19:10;;;;;;;;;;;230.70;2252.80;;;;;;4995920;28;19910;-77
2023/11/21 01:21:35;;;;;;;;;;;230.60;2252.80;;;;;;4974742;28;20080;-77
2023/11/21 01:24:02;;;;;;;;;;;230.60;2252.80;;;;;;4975187;28;20057;-77
2023/11/21 01:26:28;;;;;;;;;;;230.60;2252.80;;;;;;4974847;28;20063;-77
2023/11/21 01:28:54;;;;;;;;;;;230.70;2252.80;;;;;;4976257;28;19949;-76
2023/11/21 01:31:20;;;;;;;;;;;230.70;2252.80;;;;;;4975280;28;19906;-77
2023/11/21 01:33:46;;;;;;;;;;;230.70;2252.80;;;;;;4976393;28;20349;-77
2023/11/21 01:36:11;;;;;;;;;;;230.50;2252.80;;;;;;4973749;28;19910;-77
2023/11/21 01:38:37;;;;;;;;;;;230.40;2252.80;;;;;;4965793;28;20274;-76
2023/11/21 01:41:03;;;;;;;;;;;230.40;2252.80;;;;;;4975682;28;19906;-75
2023/11/21 01:43:30;;;;;;;;;;;205.70;2252.80;;;;;;4976321;28;20312;-75
2023/11/21 01:45:58;;;;;;;;;;;205.60;2252.80;;;;;;4975747;28;19941;-75
2023/11/21 01:48:24;;;;;;;;;;;205.50;2252.80;;;;;;4975785;28;20416;-75
2023/11/21 01:50:50;;;;;;;;;;;205.50;2252.80;;;;;;4975551;28;19914;-75
2023/11/21 01:53:16;;;;;;;;;;;205.50;2252.80;;;;;;4975585;28;20012;-75
2023/11/21 01:55:42;;;;;;;;;;;205.50;2252.80;;;;;;4975593;28;19921;-76
2023/11/21 01:58:08;;;;;;;;;;;205.40;2252.80;;;;;;4975944;28;19914;-75
2023/11/21 02:00:34;;;;;;;;;;;205.20;2252.80;;;;;;4957875;28;19911;-76
2023/11/21 02:02:59;;;;;;;;;;;205.20;2252.80;;;;;;4967876;28;20045;-77
2023/11/21 02:05:25;;;;;;;;;;;205.10;2252.80;;;;;;4975564;28;19906;-75
2023/11/21 02:07:52;;;;;;;;;;;205.20;2252.80;;;;;;4975675;28;19965;-74
2023/11/21 02:10:22;;;;;;;;;;;205.40;2252.80;;;;;;4975132;28;19912;-74
2023/11/21 02:12:51;;;;;;;;;;;205.30;2252.80;;;;;;4975639;28;19906;-74
2023/11/21 02:15:20;;;;;;;;;;;205.10;2252.80;;;;;;4972787;28;19909;-75
2023/11/21 02:17:47;;;;;;;;;;;205.00;2252.80;;;;;;4974335;28;19921;-75
2023/11/21 02:20:15;;;;;;;;;;;204.90;2252.80;;;;;;4973956;28;20440;-74
2023/11/21 02:22:41;;;;;;;;;;;205.00;2252.80;;;;;;4963710;28;19914;-75
2023/11/21 02:25:08;;;;;;;;;;;205.20;2252.80;;;;;;4959191;28;19906;-75
2023/11/21 02:27:33;;;;;;;;;;;205.30;2252.80;;;;;;4974032;28;19906;-75
2023/11/21 02:30:00;;;;;;;;;;;205.20;2252.80;;;;;;4972947;28;19913;-75
2023/11/21 02:32:26;;;;;;;;;;;205.20;2252.80;;;;;;4974958;28;19945;-76
2023/11/21 02:34:52;;;;;;;;;;;205.10;2252.80;;;;;;4975041;28;19906;-75
2023/11/21 02:37:17;;;;;;;;;;;204.90;2252.80;;;;;;4962359;28;19953;-75
2023/11/21 02:39:43;;;;;;;;;;;204.90;2252.80;;;;;;4960557;28;19906;-75
2023/11/21 02:42:08;;;;;;;;;;;204.90;2252.80;;;;;;4975019;28;19913;-75
2023/11/21 02:44:34;;;;;;;;;;;204.80;2252.80;;;;;;4974715;28;19906;-75
2023/11/21 02:47:00;;;;;;;;;;;204.80;2252.80;;;;;;4974959;28;19910;-75
2023/11/21 02:49:28;;;;;;;;;;;204.80;2252.80;;;;;;4972908;28;19913;-75
2023/11/21 02:51:54;;;;;;;;;;;204.80;2252.80;;;;;;4974868;28;19910;-75
2023/11/21 02:54:21;;;;;;;;;;;204.80;2252.80;;;;;;4973401;28;20352;-75
2023/11/21 02:56:47;;;;;;;;;;;204.80;2252.80;;;;;;4963140;28;20005;-75
2023/11/21 02:59:13;;;;;;;;;;;180.10;2252.80;;;;;;4954060;29;19952;-75
2023/11/21 03:01:39;;;;;;;;;;;180.00;2252.80;;;;;;4966993;28;20283;-75
2023/11/21 03:04:04;;;;;;;;;;;179.90;2252.80;;;;;;4960402;28;19912;-75
2023/11/21 03:06:30;;;;;;;;;;;179.90;2252.80;;;;;;4973367;28;19949;-75
2023/11/21 03:08:56;;;;;;;;;;;179.80;2252.80;;;;;;4974321;28;19993;-75
2023/11/21 03:11:21;;;;;;;;;;;179.80;2252.80;;;;;;4974721;28;19905;-75
2023/11/21 03:13:47;;;;;;;;;;;179.70;2252.80;;;;;;4974226;28;20427;-75
2023/11/21 03:16:12;;;;;;;;;;;179.80;2252.80;;;;;;4973012;28;19913;-75
2023/11/21 03:18:38;;;;;;;;;;;179.80;2252.80;;;;;;4961830;28;19921;-75
2023/11/21 03:21:04;;;;;;;;;;;179.70;2252.80;;;;;;4984422;28;20368;-75
2023/11/21 03:23:30;;;;;;;;;;;179.70;2252.80;;;;;;4993617;28;19910;-75
2023/11/21 03:25:56;;;;;;;;;;;179.60;2252.80;;;;;;4994185;28;19952;-75
2023/11/21 03:28:21;;;;;;;;;;;179.50;2252.80;;;;;;4993981;28;19906;-75
2023/11/21 03:30:47;;;;;;;;;;;179.50;2252.80;;;;;;4976582;28;20383;-75
2023/11/21 03:33:12;;;;;;;;;;;179.40;2252.80;;;;;;4976333;28;19912;-75
2023/11/21 03:35:38;;;;;;;;;;;179.50;2252.80;;;;;;4993875;28;20352;-75
2023/11/21 03:38:04;;;;;;;;;;;179.50;2252.80;;;;;;4993098;28;19914;-75
2023/11/21 03:40:31;;;;;;;;;;;179.40;2252.80;;;;;;4994025;28;19928;-75
2023/11/21 03:42:57;;;;;;;;;;;179.30;2252.80;;;;;;4996335;28;19906;-75
2023/11/21 03:45:22;;;;;;;;;;;179.20;2252.80;;;;;;4997759;28;19905;-75
2023/11/21 03:47:48;;;;;;;;;;;179.30;2252.80;;;;;;4997668;28;19905;-74
2023/11/21 03:50:14;;;;;;;;;;;179.40;2252.80;;;;;;4980103;28;19910;-74
2023/11/21 03:52:39;;;;;;;;;;;179.30;2252.80;;;;;;4997403;28;19918;-75
2023/11/21 03:55:05;;;;;;;;;;;179.30;2252.80;;;;;;4997359;28;19909;-74
2023/11/21 03:57:30;;;;;;;;;;;179.40;2252.80;;;;;;4997354;28;19917;-75
2023/11/21 03:59:56;;;;;;;;;;;179.30;2252.80;;;;;;4979958;28;19910;-74
2023/11/21 04:02:21;;;;;;;;;;;179.30;2252.80;;;;;;4997385;28;20374;-74
2023/11/21 04:04:47;;;;;;;;;;;179.30;2252.80;;;;;;4997409;28;19905;-75
2023/11/21 04:07:13;;;;;;;;;;;179.30;2252.80;;;;;;4979601;28;19996;-74
2023/11/21 04:09:39;;;;;;;;;;;179.20;2252.80;;;;;;4979352;28;19913;-75
2023/11/21 04:12:05;;;;;;;;;;;179.20;2252.80;;;;;;4997295;28;19906;-75
2023/11/21 04:14:30;;;;;;;;;;;179.20;2252.80;;;;;;4997392;28;20341;-75
2023/11/21 04:16:56;;;;;;;;;;;154.50;2252.80;;;;;;4979514;28;19913;-75
2023/11/21 04:19:21;;;;;;;;;;;154.50;2252.80;;;;;;4979422;28;19913;-75
2023/11/21 04:21:47;;;;;;;;;;;154.50;2252.80;;;;;;4996975;28;19922;-75
2023/11/21 04:24:13;;;;;;;;;;;154.50;2252.80;;;;;;4997173;28;19906;-75
2023/11/21 04:26:38;;;;;;;;;;;154.50;2252.80;;;;;;4996768;28;19953;-75
2023/11/21 04:29:04;;;;;;;;;;;179.20;2252.80;;;;;;4997131;28;19976;-76
2023/11/21 04:31:30;;;;;;;;;;;179.30;2252.80;;;;;;4979390;28;19906;-75
2023/11/21 04:33:56;;;;;;;;;;;179.20;2252.80;;;;;;4997000;28;19910;-76
2023/11/21 04:36:21;;;;;;;;;;;154.50;2252.80;;;;;;4996809;28;20017;-75
2023/11/21 04:38:47;;;;;;;;;;;154.50;2252.80;;;;;;4996855;28;19918;-75
2023/11/21 04:41:12;;;;;;;;;;;154.40;2252.80;;;;;;4979511;28;19957;-75
2023/11/21 04:43:38;;;;;;;;;;;154.40;2252.80;;;;;;4978801;28;19941;-75
2023/11/21 04:46:04;;;;;;;;;;;154.50;2252.80;;;;;;4979065;28;19984;-75
2023/11/21 04:48:29;;;;;;;;;;;154.50;2252.80;;;;;;4996957;28;19913;-76
2023/11/21 04:50:55;;;;;;;;;;;154.50;2252.80;;;;;;4979164;28;19916;-75
2023/11/21 04:53:20;;;;;;;;;;;179.20;2252.80;;;;;;4978334;28;19940;-75
2023/11/21 04:55:46;;;;;;;;;;;179.20;2252.80;;;;;;4978951;28;19929;-75
2023/11/21 04:58:12;;;;;;;;;;;179.30;2252.80;;;;;;4996410;28;19922;-75
2023/11/21 05:00:37;;;;;;;;;;;179.30;2252.80;;;;;;4995098;28;19909;-75
2023/11/21 05:03:04;;;;;;;;;;;179.40;2252.80;;;;;;4979053;28;20387;-76
2023/11/21 05:05:30;;;;;;;;;;;179.50;2252.80;;;;;;4978793;28;19974;-75
2023/11/21 05:07:55;;;;;;;;;;;179.60;2252.80;;;;;;4978808;28;19905;-75
2023/11/21 05:10:22;;;;;;;;;;;179.80;2252.80;;;;;;4978184;28;19910;-75
2023/11/21 05:12:49;;;;;;;;;;;180.00;2252.80;;;;;;4978639;28;19945;-75
2023/11/21 05:15:16;;;;;;;;;;;180.10;2252.80;;;;;;4978581;28;20318;-75
2023/11/21 05:17:42;;;;;;;;;;;180.10;2252.80;;;;;;4995977;28;19956;-75
2023/11/21 05:20:09;;;;;;;;;;;180.00;2252.80;;;;;;4995781;28;19918;-75
2023/11/21 05:22:35;;;;;;;;;;;179.40;2252.80;;;;;;4978453;28;19921;-76
2023/11/21 05:25:00;;;;;;;;;;;179.70;2252.80;;;;;;4995805;28;19909;-75
2023/11/21 05:27:26;;;;;;;;;;;179.60;2252.80;;;;;;4995803;28;19941;-75
2023/11/21 05:29:52;;;;;;;;;;;179.70;2252.80;;;;;;4995716;28;20352;-75
2023/11/21 05:32:17;;;;;;;;;;;179.80;2252.80;;;;;;4996101;28;20004;-75
2023/11/21 05:34:43;;;;;;;;;;;179.80;2252.80;;;;;;4978280;28;19906;-77
2023/11/21 05:37:08;;;;;;;;;;;179.80;2252.80;;;;;;4995898;28;19914;-77
2023/11/21 05:39:35;;;;;;;;;;;180.00;2252.80;;;;;;4977925;28;19906;-78
2023/11/21 05:42:01;;;;;;;;;;;180.10;2252.80;;;;;;4978160;28;19964;-77
2023/11/21 05:44:26;;;;;;;;;;;180.10;2252.80;;;;;;4995678;28;19906;-79
2023/11/21 05:46:52;;;;;;;;;;;204.80;2252.80;;;;;;4977738;28;19948;-79
2023/11/21 05:49:21;;;;;;;;;;;204.90;2252.80;;;;;;4978447;28;19909;-80
2023/11/21 05:51:47;;;;;;;;;;;204.80;2252.80;;;;;;4978780;28;20253;-78
2023/11/21 05:54:13;;;;;;;;;;;204.80;2252.80;;;;;;4982911;28;19986;-79
2023/11/21 05:56:38;;;;;;;;;;;205.00;2252.80;;;;;;4978003;28;20264;-77
2023/11/21 05:59:04;;;;;;;;;;;205.00;2252.80;;;;;;4977867;28;20312;-80
2023/11/21 06:01:29;;;;;;;;;;;204.90;2252.80;;;;;;4978600;28;19940;-78
2023/11/21 06:03:55;;;;;;;;;;;204.90;2252.80;;;;;;4995445;28;19906;-77
2023/11/21 06:06:22;;;;;;;;;;;204.80;2252.80;;;;;;4977578;28;20390;-77
2023/11/21 06:08:50;;;;;;;;;;;180.00;2252.80;;;;;;4989803;28;19913;-78
2023/11/21 06:11:16;;;;;;;;;;;179.90;2252.80;;;;;;4967413;28;19997;-76
2023/11/21 06:13:41;;;;;;;;;;;180.00;2252.80;;;;;;4990307;28;20012;-76
2023/11/21 06:16:07;;;;;;;;;;;180.10;2252.80;;;;;;4984093;28;19913;-75
2023/11/21 06:18:33;;;;;;;;;;;180.00;2252.80;;;;;;4975831;28;19936;-74
2023/11/21 06:21:00;;;;;;;;;;;180.10;2252.80;;;;;;4988940;28;19918;-74
2023/11/21 06:23:26;;;;;;;;;;;180.00;2252.80;;;;;;4974474;28;19910;-74
2023/11/21 06:25:52;;;;;;;;;;;179.90;2252.80;;;;;;4968603;28;19913;-76
2023/11/21 06:28:18;;;;;;;;;;;179.80;2252.80;;;;;;4973570;28;19906;-76
2023/11/21 06:30:44;;;;;;;;;;;179.70;2252.80;;;;;;4963696;28;19916;-76
2023/11/21 06:33:11;;;;;;;;;;;179.70;2252.80;;;;;;4977148;28;19912;-76
2023/11/21 06:35:36;;;;;;;;;;;179.80;2252.80;;;;;;4989970;28;19906;-77
2023/11/21 06:38:02;;;;;;;;;;;179.80;2252.80;;;;;;4962145;28;19980;-78
2023/11/21 06:40:28;;;;;;;;;;;179.80;2252.80;;;;;;4970268;28;19910;-77
2023/11/21 06:42:53;;;;;;;;;;;179.70;2252.80;;;;;;4970991;28;19906;-75
2023/11/21 06:45:20;;;;;;;;;;;179.50;2252.80;;;;;;4970930;28;19917;-77
2023/11/21 06:47:45;;;;;;;;;;;179.50;2252.80;;;;;;4972436;28;19910;-78
2023/11/21 06:50:11;;;;;;;;;;;179.30;2252.80;;;;;;4970578;28;19960;-79
2023/11/21 06:52:37;;;;;;;;;;;179.40;2252.80;;;;;;4986408;28;20471;-81
2023/11/21 06:55:03;;;;;;;;;;;179.50;2252.80;;;;;;4968281;28;19992;-77
2023/11/21 06:57:28;;;;;;;;;;;179.60;2252.80;;;;;;4964407;28;20008;-85
2023/11/21 06:59:54;;;;;;;;;;;179.80;2252.80;;;;;;4974675;28;20010;-85
2023/11/21 07:02:20;;;;;;;;;;;180.00;2252.80;;;;;;4977385;28;20360;-84
2023/11/21 07:04:46;;;;;;;;;;;180.00;2252.80;;;;;;4976834;28;19913;-78
2023/11/21 07:07:11;;;;;;;;;;;204.80;2252.80;;;;;;4969692;28;20292;-79
2023/11/21 07:09:37;;;;;;;;;;;204.90;2252.80;;;;;;4967839;28;19914;-81
2023/11/21 07:12:03;;;;;;;;;;;204.80;2252.80;;;;;;4976829;28;20275;-81
2023/11/21 07:14:29;;;;;;;;;;;180.10;2252.80;;;;;;4987266;28;19912;-81
2023/11/21 07:16:55;;;;;;;;;;;180.10;2252.80;;;;;;4986502;28;20004;-79
2023/11/21 07:19:21;;;;;;;;;;;180.10;2252.80;;;;;;4970044;28;20363;-83
2023/11/21 07:21:50;;;;;;;;;;;204.80;2252.80;;;;;;4986967;28;19926;-82
2023/11/21 07:24:16;;;;;;;;;;;204.80;2252.80;;;;;;4973642;28;19971;-78
2023/11/21 07:26:41;;;;;;;;;;;205.00;2252.80;;;;;;4975969;28;20368;-78
2023/11/21 07:29:07;;;;;;;;;;;205.00;2252.80;;;;;;4988483;28;20005;-79
2023/11/21 07:31:35;;;;;;;;;;;205.00;2252.80;;;;;;4984496;28;20352;-77
2023/11/21 07:34:01;;;;;;;;;;;204.90;2252.80;;;;;;4993860;28;19997;-77
2023/11/21 07:36:27;;;;;;;;;;;205.10;2252.80;;;;;;4975685;28;20013;-78
2023/11/21 07:38:53;;;;;;;;;;;205.00;2252.80;;;;;;4967828;28;20360;-77
2023/11/21 07:41:18;;;;;;;;;;;205.10;2252.80;;;;;;4986773;28;19906;-78
2023/11/21 07:43:45;;;;;;;;;;;205.30;2252.80;;;;;;4988314;28;19906;-78
2023/11/21 07:46:12;;;;;;;;;;;205.40;2252.80;;;;;;4990522;28;19953;-83
2023/11/21 07:48:46;;;;;;;;;;;205.60;2252.80;;;;;;4971408;28;19925;-84
2023/11/21 07:51:13;;;;;;;;;;;205.60;2252.80;;;;;;4972607;28;19925;-78
2023/11/21 07:53:39;;;;;;;;;;;205.50;2252.80;;;;;;4988458;28;20356;-78
2023/11/21 07:56:05;;;;;;;;;;;205.40;2252.80;;;;;;4983993;28;19906;-80
2023/11/21 07:58:33;;;;;;;;;;;205.50;2252.80;;;;;;4972602;28;19925;-79
2023/11/21 08:00:59;;;;;;;;;;;205.70;2252.80;;;;;;4974271;28;19992;-78
2023/11/21 08:03:26;;;;;;;;;;;230.40;2252.80;;;;;;4972232;28;19910;-78
2023/11/21 08:05:52;;;;;;;;;;;230.50;2252.80;;;;;;4988000;28;19906;-79
2023/11/21 08:08:18;;;;;;;;;;;230.60;2252.80;;;;;;4962009;28;19953;-81
2023/11/21 08:10:54;;;;;;;;;;;230.80;2252.80;;;;;;4981908;28;19976;-84
2023/11/21 08:13:19;;;;;;;;;;;230.90;2252.80;;;;;;4963015;28;19906;-82
2023/11/21 08:15:45;;;;;;;;;;;231.00;2252.80;;;;;;4988194;28;19960;-81
2023/11/21 08:18:12;;;;;;;;;;;231.10;2252.80;;;;;;4988597;28;19924;-77
2023/11/21 08:20:39;;;;;;;;;;;231.30;2252.80;;;;;;4975624;28;19921;-80
2023/11/21 08:23:05;;;;;;;;;;;256.10;2252.80;;;;;;4991745;28;19948;-81
2023/11/21 08:25:31;;;;;;;;;;;256.20;2252.80;;;;;;4989331;28;19963;-78
2023/11/21 08:27:57;;;;;;;;;;;256.20;2252.80;;;;;;4975033;28;19909;-77
2023/11/21 08:30:24;;;;;;;;;;;256.20;2252.80;;;;;;4978416;28;19906;-78
2023/11/21 08:32:51;;;;;;;;;;;256.10;2252.80;;;;;;4977063;28;20051;-77
2023/11/21 08:35:16;;;;;;;;;;;256.50;2252.80;;;;;;4977251;28;19906;-77
2023/11/21 08:37:42;;;;;;;;;;;256.60;2252.80;;;;;;4969302;28;19922;-77
2023/11/21 08:40:09;;;;;;;;;;;256.80;2252.80;;;;;;4976193;28;20387;-77
2023/11/21 08:42:35;;;;;;;;;;;256.90;2252.80;;;;;;4976949;28;20356;-77
2023/11/21 08:45:01;;;;;;;;;;;281.70;2278.40;;;;;;4990819;28;19905;-78
2023/11/21 08:47:26;;;;;;;;;;;281.80;2278.40;;;;;;4968832;28;19906;-77
2023/11/21 08:49:53;;;;;;;;;;;282.00;2278.40;;;;;;4988642;28;19910;-77
2023/11/21 08:52:20;;;;;;;;;;;281.90;2278.40;;;;;;4975960;28;19914;-78
2023/11/21 08:54:46;;;;;;;;;;;282.00;2278.40;;;;;;4976304;28;19957;-81
2023/11/21 08:57:11;;;;;;;;;;;282.10;2278.40;;;;;;4991601;28;19961;-78
2023/11/21 08:59:37;;;;;;;;;;;282.10;2278.40;;;;;;4978863;28;19964;-79
2023/11/21 09:02:03;;;;;;;;;;;282.00;2278.40;;;;;;4975185;28;19913;-79
2023/11/21 09:04:28;;;;;;;;;;;282.10;2278.40;;;;;;4995718;28;20267;-79
2023/11/21 09:06:54;;;;;;;;;;;282.20;2278.40;;;;;;4978139;28;19944;-79
2023/11/21 09:09:19;;;;;;;;;;;282.20;2278.40;;;;;;4989538;28;19912;-79
2023/11/21 09:11:46;;;;;;;;;;;282.50;2278.40;;;;;;4991242;28;19905;-83
2023/11/21 09:14:13;;;;;;;;;;;307.20;2304.00;;;;;;4970053;28;19910;-78
2023/11/21 09:16:39;;;;;;;;;;;307.20;2304.00;;;;;;4972893;28;19932;-80
2023/11/21 09:19:05;;;;;;;;;;;307.40;2304.00;;;;;;4972342;28;20368;-79
2023/11/21 09:21:30;;;;;;;;;;;307.40;2304.00;;;;;;4986832;28;20279;-78
2023/11/21 09:23:56;;;;;;;;;;;307.40;2304.00;;;;;;4986930;28;19987;-79
2023/11/21 09:26:22;;;;;;;;;;;307.50;2304.00;;;;;;4989737;28;19913;-81
2023/11/21 09:28:47;;;;;;;;;;;307.70;2304.00;;;;;;4987286;28;20352;-79
2023/11/21 09:31:16;;;;;;;;;;;307.70;2304.00;;;;;;4972253;28;19980;-78
2023/11/21 09:33:42;;;;;;;;;;;307.70;2304.00;;;;;;4995768;28;19909;-79
2023/11/21 09:36:11;;;;;;;;;;;307.70;2304.00;;;;;;4990200;28;20009;-78
2023/11/21 09:38:39;;;;;;;;;;;307.80;2304.00;;;;;;4989673;28;19921;-79
2023/11/21 09:41:07;;;;;;;;;;;307.90;2304.00;;;;;;4974394;28;20375;-78
2023/11/21 09:43:34;;;;;;;;;;;307.80;2304.00;;;;;;4987019;28;19905;-79
2023/11/21 09:46:00;;;;;;;;;;;307.60;2304.00;;;;;;4983308;28;19916;-82
2023/11/21 09:48:26;;;;;;;;;;;307.90;2304.00;;;;;;4979332;28;19922;-80
2023/11/21 09:50:53;;;;;;;;;;;308.00;2304.00;;;;;;4990023;28;20006;-79
2023/11/21 09:53:20;;;;;;;;;;;308.10;2304.00;;;;;;4980390;28;19933;-78
2023/11/21 09:55:47;;;;;;;;;;;332.80;2329.60;;;;;;4989755;28;20363;-79
2023/11/21 09:58:14;;;;;;;;;;;332.90;2329.60;;;;;;4973440;28;19922;-79
2023/11/21 10:00:40;;;;;;;;;;;332.80;2329.60;;;;;;4993697;28;19910;-77
2023/11/21 10:03:06;;;;;;;;;;;332.90;2329.60;;;;;;4971445;28;19906;-79
2023/11/21 10:05:34;;;;;;;;;;;333.00;2329.60;;;;;;4992033;28;20000;-79
2023/11/21 10:07:59;;;;;;;;;;;332.90;2329.60;;;;;;4992088;28;19943;-77
2023/11/21 10:10:25;;;;;;;;;;;332.90;2329.60;;;;;;4984851;28;19906;-77
2023/11/21 10:12:55;;;;;;;;;;;332.90;2329.60;;;;;;4988349;28;19938;-78
2023/11/21 10:15:26;;;;;;;;;;;333.00;2329.60;;;;;;4970349;28;19910;-78
2023/11/21 10:17:53;;;;;;;;;;;333.00;2329.60;;;;;;4988673;28;19914;-79
2023/11/21 10:20:24;;;;;;;;;;;333.00;2329.60;;;;;;4987971;28;19910;-84
2023/11/21 10:22:50;;;;;;;;;;;333.00;2329.60;;;;;;4969241;28;20271;-82
2023/11/21 10:25:16;;;;;;;;;;;333.20;2329.60;;;;;;4968034;28;19937;-80
2023/11/21 10:27:42;;;;;;;;;;;333.10;2329.60;;;;;;4982019;28;20011;-80
2023/11/21 10:30:11;;;;;;;;;;;333.20;2329.60;;;;;;4977865;28;19912;-82
2023/11/21 10:32:40;;;;;;;;;;;333.20;2329.60;;;;;;4977739;28;19929;-85
2023/11/21 10:35:09;;;;;;;;;;;333.20;2329.60;;;;;;4993211;28;19963;-79
2023/11/21 10:37:42;;;;;;;;;;;333.20;2329.60;;;;;;4977006;28;19921;-79
2023/11/21 10:40:12;;;;;;;;;;;333.30;2329.60;;;;;;4992460;28;19906;-79
2023/11/21 10:42:41;;;;;;;;;;;333.30;2329.60;;;;;;4983463;28;19949;-78
2023/11/21 10:45:14;;;;;;;;;;;333.30;2329.60;;;;;;4991641;28;19952;-79
2023/11/21 10:47:44;;;;;;;;;;;333.40;2329.60;;;;;;4992143;28;19910;-80
2023/11/21 10:50:11;;;;;;;;;;;333.40;2329.60;;;;;;4988938;28;20004;-79
2023/11/21 10:52:39;;;;;;;;;;;333.40;2329.60;;;;;;4970540;28;19910;-80
2023/11/21 10:55:18;;;;;;;;;;;333.30;2329.60;;;;;;4991648;28;20000;-80
2023/11/21 10:57:48;;;;;;;;;;;333.20;2329.60;;;;;;4986444;28;19917;-80
2023/11/21 11:00:15;;;;;;;;;;;333.20;2329.60;;;;;;4977360;28;19928;-80
2023/11/21 11:02:41;;;;;;;;;;;333.20;2329.60;;;;;;4987015;28;19952;-82
2023/11/21 11:05:11;;;;;;;;;;;333.10;2329.60;;;;;;4993033;28;19906;-82
2023/11/21 11:07:39;;;;;;;;;;;333.20;2329.60;;;;;;4972398;28;19912;-83
2023/11/21 11:10:08;;;;;;;;;;;333.20;2329.60;;;;;;4976250;28;19998;-80
2023/11/21 11:12:35;;;;;;;;;;;333.20;2329.60;;;;;;4972975;28;19906;-80
2023/11/21 11:15:02;;;;;;;;;;;333.20;2329.60;;;;;;4969034;28;19906;-85
2023/11/21 11:17:28;;;;;;;;;;;333.10;2329.60;;;;;;4986134;28;19932;-84
2023/11/21 11:19:53;;;;;;;;;;;333.30;2329.60;;;;;;4988551;28;20348;-78
2023/11/21 11:22:35;;;;;;;;;;;333.40;2329.60;;;;;;4973494;28;19946;-84
2023/11/21 11:25:22;;;;;;;;;;;333.40;2329.60;;;;;;4970077;28;19906;-78
2023/11/21 11:27:56;;;;;;;;;;;333.40;2329.60;;;;;;4966092;28;19910;-78
2023/11/21 11:30:31;;;;;;;;;;;333.40;2329.60;;;;;;4976616;28;19909;-78
2023/11/21 11:33:07;;;;;;;;;;;333.40;2329.60;;;;;;4979820;28;19910;-81
2023/11/21 11:35:32;;;;;;;;;;;333.40;2329.60;;;;;;4975855;28;19906;-82
2023/11/21 11:37:58;;;;;;;;;;;333.40;2329.60;;;;;;4962603;28;20280;-80
2023/11/21 11:40:25;;;;;;;;;;;333.40;2329.60;;;;;;4985909;28;20359;-83
2023/11/21 11:42:58;;;;;;;;;;;333.40;2329.60;;;;;;4973406;28;20148;-82
2023/11/21 11:45:28;;;;;;;;;;;333.40;2329.60;;;;;;4990588;28;19992;-80
2023/11/21 11:47:56;;;;;;;;;;;333.30;2329.60;;;;;;4968401;28;19913;-81
2023/11/21 11:50:22;;;;;;;;;;;333.40;2329.60;;;;;;4966890;28;19913;-80
2023/11/21 11:52:50;;;;;;;;;;;333.40;2329.60;;;;;;4983845;28;19964;-78
2023/11/21 11:55:19;;;;;;;;;;;333.40;2329.60;;;;;;4990422;28;19948;-78
2023/11/21 11:57:52;;;;;;;;;;;333.30;2329.60;;;;;;4989230;28;20340;-80
2023/11/21 12:00:32;;;;;;;;;;;333.40;2329.60;;;;;;4973860;28;20271;-79
2023/11/21 12:02:59;;;;;;;;;;;333.30;2329.60;;;;;;4987476;28;19906;-79
2023/11/21 12:05:27;;;;;;;;;;;333.30;2329.60;;;;;;4994690;28;19905;-79
2023/11/21 12:07:57;;;;;;;;;;;333.20;2329.60;;;;;;4972313;28;19929;-78
2023/11/21 12:10:27;;;;;;;;;;;333.30;2329.60;;;;;;4995133;28;19992;-79
2023/11/21 12:13:14;;;;;;;;;;;333.20;2329.60;;;;;;4975149;28;19906;-80
2023/11/21 12:15:41;;;;;;;;;;;333.10;2329.60;;;;;;4978067;28;19905;-85
2023/11/21 12:18:07;;;;;;;;;;;333.00;2329.60;;;;;;4991745;28;19914;-80
2023/11/21 12:20:38;;;;;;;;;;;333.00;2329.60;;;;;;4991133;28;19936;-79
2023/11/21 12:23:04;;;;;;;;;;;333.00;2329.60;;;;;;4971050;28;19910;-79
2023/11/21 12:25:31;;;;;;;;;;;333.00;2329.60;;;;;;4988743;28;19912;-79
2023/11/21 12:27:58;;;;;;;;;;;332.90;2329.60;;;;;;4969608;28;19938;-78
2023/11/21 12:30:24;;;;;;;;;;;332.90;2329.60;;;;;;4994364;28;19912;-77
2023/11/21 12:32:51;;;;;;;;;;;332.90;2150.40;;;;;;4974348;28;19909;-78
2023/11/21 12:35:19;;;;;;;;;;;332.80;2304.00;;;;;;4976554;28;19906;-82
2023/11/21 12:37:46;;;;;;;;;;;308.10;2304.00;;;;;;4973030;28;20283;-81
2023/11/21 12:40:15;;;;;;;;;;;308.10;2304.00;;;;;;4979631;28;19910;-80
2023/11/21 12:42:41;;;;;;;;;;;332.80;2329.60;;;;;;4974017;28;19913;-80
2023/11/21 12:45:14;;;;;;;;;;;332.80;2329.60;;;;;;4989315;28;20352;-82
2023/11/21 12:47:42;;;;;;;;;;;308.10;2304.00;;;;;;4988762;28;19985;-80
2023/11/21 12:50:14;;;;;;;;;;;308.10;2304.00;;;;;;4967567;28;20397;-78
2023/11/21 12:52:49;;;;;;;;;;;308.10;2304.00;;;;;;4991778;28;19914;-78
2023/11/21 12:55:16;;;;;;;;;;;308.10;2227.20;;;;;;4965009;28;19910;-78
2023/11/21 12:57:43;;;;;;;;;;;308.00;2304.00;;;;;;4978472;28;19945;-78
2023/11/21 13:00:13;;;;;;;;;;;308.10;2304.00;;;;;;4996845;28;20364;-81
2023/11/21 13:02:42;;;;;;;;;;;308.10;2304.00;;;;;;4979291;28;19956;-78
2023/11/21 13:05:12;;;;;;;;;;;308.10;2304.00;;;;;;4977581;28;19905;-82
2023/11/21 13:07:46;;;;;;;;;;;308.10;2304.00;;;;;;4993949;28;20383;-82
2023/11/21 13:10:15;;;;;;;;;;;308.10;2304.00;;;;;;4994853;28;19965;-82
2023/11/21 13:12:47;;;;;;;;;;;308.10;2304.00;;;;;;4978966;28;19941;-83
2023/11/21 13:15:19;;;;;;;;;;;308.10;2304.00;;;;;;4975209;28;19917;-83
2023/11/21 13:17:45;;;;;;;;;;;307.90;2304.00;;;;;;4968836;28;20012;-84
2023/11/21 13:20:15;;;;;;;;;;;307.80;2304.00;;;;;;4974406;28;19917;-81
2023/11/21 13:22:54;;;;;;;;;;;307.60;2304.00;;;;;;4993527;28;19913;-83
2023/11/21 13:25:20;;;;;;;;;;;307.90;2304.00;;;;;;4989720;28;19906;-80
2023/11/21 13:27:46;;;;;;;;;;;307.90;2304.00;;;;;;4971102;28;19910;-77
2023/11/21 13:30:15;;;;;;;;;;;307.80;2304.00;;;;;;4994584;28;19920;-78
2023/11/21 13:32:45;;;;;;;;;;;307.80;2304.00;;;;;;4974105;28;20328;-77
2023/11/21 13:35:20;;;;;;;;;;;307.80;2304.00;;;;;;4990007;28;20453;-78
2023/11/21 13:37:51;;;;;;;;;;;307.80;2304.00;;;;;;4971710;28;19940;-77
2023/11/21 13:40:22;;;;;;;;;;;307.80;2304.00;;;;;;4992157;28;19948;-78